createdAt,value
2023-03-14T00:01:40.421Z,6.35
2023-03-14T00:04:42.074Z,6.18
2023-03-14T00:07:43.729Z,5.97
2023-03-14T00:10:45.376Z,7.18
2023-03-14T00:13:51.261Z,6.22
2023-03-14T00:16:52.957Z,7.35
2023-03-14T00:19:55.059Z,9.45
2023-03-14T00:22:56.705Z,6.10
2023-03-14T00:26:06.705Z,7.18
2023-03-14T00:29:08.388Z,11.07
2023-03-14T00:32:10.067Z,6.55
2023-03-14T00:35:11.839Z,9.30
2023-03-14T00:38:13.486Z,9.77
2023-03-14T00:41:17.251Z,8.90
2023-03-14T00:44:18.905Z,9.38
2023-03-14T00:47:20.564Z,9.05
2023-03-14T00:50:22.204Z,8.98
2023-03-14T00:53:24.275Z,9.07
2023-03-14T00:56:25.928Z,7.05
2023-03-14T00:59:27.591Z,12.98
2023-03-14T01:02:29.698Z,9.43
2023-03-14T01:05:31.638Z,15.65
2023-03-14T01:08:33.260Z,6.35
2023-03-14T01:11:36.094Z,10.20
2023-03-14T01:14:37.826Z,9.65
2023-03-14T01:17:40.549Z,9.52
2023-03-14T01:20:42.182Z,9.48
2023-03-14T01:23:44.564Z,9.50
2023-03-14T01:26:46.285Z,7.47
2023-03-14T01:29:48.328Z,9.05
2023-03-14T01:32:50.052Z,15.55
2023-03-14T01:35:51.812Z,9.05
2023-03-14T01:38:53.601Z,9.35
2023-03-14T01:41:55.284Z,12.37
2023-03-14T01:45:01.997Z,7.62
2023-03-14T01:48:03.696Z,9.77
2023-03-14T01:51:12.035Z,8.68
2023-03-14T01:54:23.253Z,8.98
2023-03-14T01:57:31.173Z,10.07
2023-03-14T02:00:33.034Z,11.63
2023-03-14T02:03:44.692Z,11.57
2023-03-14T02:06:58.433Z,10.82
2023-03-14T02:10:00.982Z,9.57
2023-03-14T02:13:05.602Z,8.25
2023-03-14T02:16:07.761Z,9.20
2023-03-14T02:19:11.803Z,12.18
2023-03-14T02:22:15.577Z,8.40
2023-03-14T02:25:35.349Z,10.48
2023-03-14T02:28:37.215Z,9.45
2023-03-14T02:31:39.372Z,13.10
2023-03-14T02:34:43.378Z,11.50
2023-03-14T02:38:35.947Z,14.18
2023-03-14T02:41:37.588Z,8.85
2023-03-14T02:44:54.988Z,12.90
2023-03-14T02:48:03.500Z,13.40
2023-03-14T02:51:05.302Z,8.70
2023-03-14T02:54:07.140Z,9.85
2023-03-14T02:57:08.818Z,8.50
2023-03-14T03:00:11.269Z,7.43
2023-03-14T03:03:13.413Z,9.40
2023-03-14T03:06:15.902Z,10.68
2023-03-14T03:09:17.552Z,10.65
2023-03-14T03:12:19.300Z,12.57
2023-03-14T03:15:20.966Z,15.52
2023-03-14T03:18:22.794Z,11.27
2023-03-14T03:21:24.488Z,8.35
2023-03-14T03:24:27.298Z,7.50
2023-03-14T03:27:32.840Z,8.48
2023-03-14T03:30:44.223Z,11.88
2023-03-14T03:33:45.909Z,9.55
2023-03-14T03:36:47.569Z,9.70
2023-03-14T03:39:51.964Z,9.23
2023-03-14T03:42:53.661Z,10.07
2023-03-14T03:45:55.801Z,10.13
2023-03-14T03:48:59.210Z,11.60
2023-03-14T03:52:01.614Z,8.98
2023-03-14T03:55:03.476Z,9.27
2023-03-14T03:58:05.090Z,11.18
2023-03-14T04:01:07.858Z,11.40
2023-03-14T04:04:09.724Z,8.75
2023-03-14T04:07:13.205Z,10.43
2023-03-14T04:10:15.040Z,28.23
2023-03-14T04:13:16.688Z,12.07
2023-03-14T04:16:21.543Z,11.55
2023-03-14T04:19:23.301Z,12.55
2023-03-14T04:22:24.998Z,7.68
2023-03-14T04:25:26.702Z,8.90
2023-03-14T04:28:28.472Z,18.65
2023-03-14T04:31:30.221Z,12.77
2023-03-14T04:34:31.876Z,10.52
2023-03-14T04:37:33.512Z,12.68
2023-03-14T04:40:38.385Z,19.40
2023-03-14T04:43:40.031Z,16.92
2023-03-14T04:46:41.752Z,12.65
2023-03-14T04:49:43.429Z,15.32
2023-03-14T04:52:45.098Z,20.35
2023-03-14T04:55:54.579Z,22.58
2023-03-14T04:58:56.281Z,16.00
2023-03-14T05:01:58.139Z,14.05
2023-03-14T05:04:59.789Z,12.85
2023-03-14T05:08:01.417Z,13.50
2023-03-14T05:11:03.991Z,14.13
2023-03-14T05:14:05.614Z,15.13
2023-03-14T05:17:07.366Z,18.60
2023-03-14T05:20:10.669Z,16.77
2023-03-14T05:23:12.652Z,10.95
2023-03-14T05:26:14.377Z,11.12
2023-03-14T05:29:16.021Z,9.43
2023-03-14T05:32:17.673Z,13.40
2023-03-14T05:35:19.355Z,8.60
2023-03-14T05:38:21.032Z,7.35
2023-03-14T05:41:22.681Z,6.68
2023-03-14T05:44:24.430Z,10.00
2023-03-14T05:47:26.224Z,10.63
2023-03-14T05:50:28.085Z,10.95
2023-03-14T05:53:30.399Z,11.82
2023-03-14T05:56:32.085Z,9.85
2023-03-14T05:59:33.785Z,12.00
2023-03-14T06:02:35.481Z,7.60
2023-03-14T06:05:37.111Z,14.93
2023-03-14T06:08:38.768Z,7.85
2023-03-14T06:11:40.388Z,9.82
2023-03-14T06:14:42.028Z,9.40
2023-03-14T06:17:43.679Z,7.90
2023-03-14T06:20:45.455Z,8.77
2023-03-14T06:23:47.112Z,11.60
2023-03-14T06:26:48.782Z,10.00
2023-03-14T06:29:50.462Z,7.45
2023-03-14T06:32:52.241Z,8.98
2023-03-14T06:35:53.924Z,7.05
2023-03-14T06:38:55.601Z,11.10
2023-03-14T06:41:57.251Z,8.13
2023-03-14T06:44:58.873Z,10.93
2023-03-14T06:48:00.522Z,9.75
2023-03-14T06:51:02.185Z,11.82
2023-03-14T06:54:03.947Z,8.07
2023-03-14T06:57:05.637Z,14.52
2023-03-14T07:00:08.023Z,16.45
2023-03-14T07:03:13.297Z,7.50
2023-03-14T07:06:15.099Z,9.55
2023-03-14T07:09:18.294Z,7.15
2023-03-14T07:12:20.528Z,7.87
2023-03-14T07:15:22.225Z,7.40
2023-03-14T07:18:23.858Z,12.02
2023-03-14T07:21:25.613Z,8.73
2023-03-14T07:24:27.322Z,12.45
2023-03-14T07:27:29.015Z,13.80
2023-03-14T07:30:30.667Z,6.95
2023-03-14T07:33:32.747Z,10.77
2023-03-14T07:36:34.552Z,20.90
2023-03-14T07:39:36.441Z,16.50
2023-03-14T07:42:38.099Z,6.03
2023-03-14T07:45:43.223Z,14.27
2023-03-14T07:48:45.239Z,26.58
2023-03-14T07:51:50.368Z,25.55
2023-03-14T07:54:52.036Z,29.87
2023-03-14T07:57:53.663Z,6.65
2023-03-14T08:00:55.320Z,11.73
2023-03-14T08:03:57.198Z,29.63
2023-03-14T08:06:58.909Z,30.65
2023-03-14T08:10:00.563Z,40.72
2023-03-14T08:13:02.510Z,64.32
2023-03-14T08:16:05.226Z,32.70
2023-03-14T08:19:06.861Z,23.02
2023-03-14T08:22:08.532Z,12.23
2023-03-14T08:25:10.408Z,28.58
2023-03-14T08:28:12.357Z,63.75
2023-03-14T08:31:14.309Z,34.95
2023-03-14T08:34:16.426Z,56.65
2023-03-14T08:37:26.279Z,38.45
2023-03-14T08:40:28.530Z,39.33
2023-03-14T08:43:30.400Z,54.15
2023-03-14T08:46:32.153Z,8.73
2023-03-14T08:49:33.857Z,42.67
2023-03-14T08:52:36.059Z,14.55
2023-03-14T08:55:37.711Z,32.08
2023-03-14T08:58:39.612Z,54.97
2023-03-14T09:01:41.532Z,54.05
2023-03-14T09:04:43.228Z,29.55
2023-03-14T09:07:44.944Z,36.17
2023-03-14T09:10:46.743Z,80.70
2023-03-14T09:13:49.656Z,56.72
2023-03-14T09:16:51.882Z,79.32
2023-03-14T09:19:53.628Z,39.85
2023-03-14T09:22:55.418Z,32.95
2023-03-14T09:25:58.558Z,45.65
2023-03-14T09:29:00.195Z,43.38
2023-03-14T09:32:02.050Z,39.22
2023-03-14T09:35:03.911Z,32.85
2023-03-14T09:38:06.846Z,13.50
2023-03-14T09:41:36.834Z,19.27
2023-03-14T09:45:09.315Z,9.88
2023-03-14T09:48:21.500Z,14.55
2023-03-14T09:51:24.674Z,15.20
2023-03-14T09:54:34.453Z,7.65
2023-03-14T09:57:37.384Z,21.10
2023-03-14T10:00:39.389Z,22.30
2023-03-14T10:03:43.133Z,15.48
2023-03-14T10:06:44.787Z,9.70
2023-03-14T10:09:49.441Z,18.40
2023-03-14T10:13:02.875Z,18.37
2023-03-14T10:16:08.908Z,19.60
2023-03-14T10:19:13.320Z,16.23
2023-03-14T10:22:16.054Z,10.65
2023-03-14T10:25:28.664Z,11.68
2023-03-14T10:28:34.496Z,15.77
2023-03-14T10:32:02.050Z,14.73
2023-03-14T10:35:12.936Z,13.05
2023-03-14T10:38:17.489Z,34.08
2023-03-14T10:41:28.489Z,10.93
2023-03-14T10:44:31.611Z,16.17
2023-03-14T10:47:34.001Z,7.25
2023-03-14T10:50:35.809Z,7.43
2023-03-14T10:53:42.800Z,15.40
2023-03-14T10:56:44.446Z,14.68
2023-03-14T10:59:46.270Z,10.77
2023-03-14T11:03:09.785Z,5.28
2023-03-14T11:06:21.934Z,18.83
2023-03-14T11:09:37.040Z,20.12
2023-03-14T11:12:57.297Z,12.70
2023-03-14T11:16:24.896Z,12.40
2023-03-14T11:19:38.578Z,12.52
2023-03-14T11:22:46.279Z,18.40
2023-03-14T11:26:02.599Z,13.85
2023-03-14T11:29:20.955Z,24.63
2023-03-14T11:32:38.217Z,5.18
2023-03-14T11:35:43.754Z,10.32
2023-03-14T11:38:59.095Z,20.05
2023-03-14T11:42:04.702Z,19.98
2023-03-14T11:45:20.288Z,26.02
2023-03-14T11:48:36.928Z,13.85
2023-03-14T11:51:42.507Z,27.37
2023-03-14T11:54:52.938Z,15.25
2023-03-14T11:57:59.781Z,13.25
2023-03-14T12:01:09.797Z,11.85
2023-03-14T12:04:23.215Z,8.65
2023-03-14T12:07:51.004Z,15.65
2023-03-14T12:10:55.873Z,13.52
2023-03-14T12:13:57.564Z,21.05
2023-03-14T12:17:21.505Z,9.15
2023-03-14T12:20:25.315Z,26.60
2023-03-14T12:23:29.051Z,8.48
2023-03-14T12:26:49.985Z,15.60
2023-03-14T12:30:04.611Z,38.50
2023-03-14T12:33:18.751Z,16.15
2023-03-14T12:36:43.235Z,9.15
2023-03-14T12:40:07.094Z,11.32
2023-03-14T12:43:32.698Z,17.92
2023-03-14T12:46:34.601Z,10.80
2023-03-14T12:49:39.110Z,16.37
2023-03-14T12:52:59.012Z,16.98
2023-03-14T12:56:03.504Z,13.68
2023-03-14T12:59:14.101Z,19.15
2023-03-14T13:02:22.812Z,13.23
2023-03-14T13:05:26.619Z,14.40
2023-03-14T13:08:41.671Z,16.08
2023-03-14T13:11:44.175Z,17.05
2023-03-14T13:14:49.543Z,27.33
2023-03-14T13:17:54.713Z,25.27
2023-03-14T13:21:20.683Z,14.57
2023-03-14T13:24:24.012Z,22.52
2023-03-14T13:27:26.730Z,14.68
2023-03-14T13:30:36.665Z,12.90
2023-03-14T13:33:41.702Z,22.17
2023-03-14T13:36:43.573Z,13.15
2023-03-14T13:39:51.460Z,21.40
2023-03-14T13:43:05.444Z,12.02
2023-03-14T13:46:15.614Z,6.57
2023-03-14T13:49:27.420Z,10.25
2023-03-14T13:52:36.957Z,6.45
2023-03-14T13:55:39.405Z,18.25
2023-03-14T13:58:42.129Z,8.88
2023-03-14T14:01:44.289Z,7.47
2023-03-14T14:04:48.888Z,10.65
2023-03-14T14:07:52.410Z,6.35
2023-03-14T14:11:00.388Z,9.57
2023-03-14T14:14:02.851Z,12.52
2023-03-14T14:17:09.255Z,10.77
2023-03-14T14:20:33.518Z,19.53
2023-03-14T14:23:37.243Z,7.12
2023-03-14T14:26:42.356Z,13.57
2023-03-14T14:29:45.525Z,11.52
2023-03-14T14:32:49.305Z,24.80
2023-03-14T14:35:57.278Z,6.78
2023-03-14T14:39:14.691Z,20.25
2023-03-14T14:42:18.054Z,13.98
2023-03-14T14:45:22.260Z,12.70
2023-03-14T14:48:26.635Z,12.02
2023-03-14T14:51:33.936Z,9.02
2023-03-14T14:57:49.060Z,14.32
2023-03-14T15:01:09.500Z,10.90
2023-03-14T15:04:14.809Z,18.42
2023-03-14T15:07:16.720Z,14.85
2023-03-14T15:10:21.384Z,10.60
2023-03-14T15:13:23.134Z,21.25
2023-03-14T15:16:30.017Z,12.23
2023-03-14T15:19:33.620Z,17.83
2023-03-14T15:22:35.308Z,14.50
2023-03-14T15:25:54.480Z,11.80
2023-03-14T15:28:57.028Z,16.23
2023-03-14T15:31:59.341Z,15.52
2023-03-14T15:35:01.024Z,11.20
2023-03-14T15:38:02.933Z,6.37
2023-03-14T15:41:04.785Z,8.75
2023-03-14T15:44:06.548Z,7.45
2023-03-14T15:47:11.313Z,11.73
2023-03-14T15:50:12.948Z,4.68
2023-03-14T15:53:15.283Z,13.20
2023-03-14T15:56:19.948Z,5.15
2023-03-14T15:59:21.671Z,13.52
2023-03-14T16:02:23.315Z,9.15
2023-03-14T16:05:25.010Z,14.27
2023-03-14T16:08:29.546Z,15.57
2023-03-14T16:11:31.210Z,6.37
2023-03-14T16:14:32.914Z,7.00
2023-03-14T16:17:35.166Z,6.37
2023-03-14T16:20:47.503Z,8.35
2023-03-14T16:23:49.868Z,23.67
2023-03-14T16:26:51.548Z,13.75
2023-03-14T16:29:53.396Z,12.32
2023-03-14T16:32:55.472Z,10.77
2023-03-14T16:36:01.572Z,13.27
2023-03-14T16:39:04.125Z,12.00
2023-03-14T16:42:07.548Z,8.45
2023-03-14T16:45:10.219Z,10.00
2023-03-14T16:48:12.248Z,6.75
2023-03-14T16:51:16.475Z,13.80
2023-03-14T16:54:18.319Z,10.93
2023-03-14T16:57:20.146Z,6.57
2023-03-14T17:00:22.495Z,7.65
2023-03-14T17:03:24.545Z,5.22
2023-03-14T17:06:29.262Z,11.93
2023-03-14T17:09:32.683Z,7.22
2023-03-14T17:12:34.773Z,7.97
2023-03-14T17:15:38.580Z,16.60
2023-03-14T17:18:40.768Z,9.55
2023-03-14T17:21:42.514Z,10.05
2023-03-14T17:24:44.784Z,13.02
2023-03-14T17:27:46.717Z,16.30
2023-03-14T17:30:49.301Z,6.22
2023-03-14T17:33:55.279Z,12.18
2023-03-14T17:37:00.036Z,9.70
2023-03-14T17:40:04.597Z,13.93
2023-03-14T17:43:07.288Z,18.27
2023-03-14T17:46:15.218Z,14.63
2023-03-14T17:49:17.854Z,12.68
2023-03-14T17:52:20.649Z,8.88
2023-03-14T17:55:23.249Z,12.00
2023-03-14T17:58:28.497Z,10.00
2023-03-14T18:01:32.053Z,8.93
2023-03-14T18:04:34.616Z,11.38
2023-03-14T18:07:38.389Z,6.75
2023-03-14T18:10:40.738Z,5.97
2023-03-14T18:13:43.689Z,7.20
2023-03-14T18:16:48.856Z,5.62
2023-03-14T18:19:51.079Z,9.43
2023-03-14T18:22:53.549Z,9.80
2023-03-14T18:25:56.104Z,5.68
2023-03-14T18:28:58.845Z,9.48
2023-03-14T18:32:01.063Z,8.55
2023-03-14T18:35:05.382Z,4.53
2023-03-14T18:38:08.992Z,5.75
2023-03-14T18:41:14.085Z,8.05
2023-03-14T18:44:16.689Z,3.70
2023-03-14T18:47:19.582Z,4.70
2023-03-14T18:50:22.230Z,5.10
2023-03-14T18:53:32.473Z,4.45
2023-03-14T18:56:34.825Z,3.22
2023-03-14T18:59:37.069Z,7.68
2023-03-14T19:02:39.130Z,3.92
2023-03-14T19:05:47.474Z,4.65
2023-03-14T19:08:50.605Z,4.35
2023-03-14T19:11:54.808Z,6.53
2023-03-14T19:14:57.596Z,6.07
2023-03-14T19:18:00.914Z,3.97
2023-03-14T19:21:06.679Z,3.05
2023-03-14T19:24:14.916Z,4.20
2023-03-14T19:27:17.610Z,4.87
2023-03-14T19:30:21.873Z,7.95
2023-03-14T19:33:26.564Z,8.35
2023-03-14T19:36:32.050Z,7.30
2023-03-14T19:39:34.202Z,9.55
2023-03-14T19:42:42.855Z,8.52
2023-03-14T19:45:46.200Z,10.48
2023-03-14T19:48:49.485Z,12.85
2023-03-14T19:51:53.551Z,7.80
2023-03-14T19:54:56.837Z,5.00
2023-03-14T19:57:59.803Z,3.78
2023-03-14T20:01:07.447Z,3.95
2023-03-14T20:04:11.042Z,4.10
2023-03-14T20:07:14.910Z,4.35
2023-03-14T20:10:23.377Z,4.97
2023-03-14T20:13:26.310Z,4.75
2023-03-14T20:16:29.989Z,4.70
2023-03-14T20:19:36.669Z,2.53
2023-03-14T20:22:41.343Z,5.20
2023-03-14T20:25:46.021Z,7.55
2023-03-14T20:28:49.452Z,3.92
2023-03-14T20:31:53.469Z,4.80
2023-03-14T20:34:56.252Z,4.50
2023-03-14T20:37:59.087Z,5.62
2023-03-14T20:41:01.785Z,5.40
2023-03-14T20:44:04.615Z,4.80
2023-03-14T20:47:07.422Z,5.70
2023-03-14T20:50:14.653Z,7.30
2023-03-14T20:53:20.122Z,6.87
2023-03-14T20:56:23.054Z,9.80
2023-03-14T20:59:25.865Z,7.72
2023-03-14T21:02:37.167Z,6.85
2023-03-14T21:05:42.822Z,6.35
2023-03-14T21:08:45.762Z,5.75
2023-03-14T21:11:48.697Z,7.95
2023-03-14T21:14:50.929Z,7.10
2023-03-14T21:17:53.896Z,6.32
2023-03-14T21:20:59.248Z,6.03
2023-03-14T21:24:02.656Z,4.32
2023-03-14T21:27:04.598Z,6.93
2023-03-14T21:30:08.605Z,6.72
2023-03-14T21:33:11.352Z,5.57
2023-03-14T21:36:13.037Z,5.40
2023-03-14T21:39:14.818Z,7.10
2023-03-14T21:42:16.738Z,7.10
2023-03-14T21:45:18.850Z,3.97
2023-03-14T21:48:22.276Z,5.95
2023-03-14T21:51:29.963Z,4.90
2023-03-14T21:54:33.910Z,9.73
2023-03-14T21:57:35.484Z,4.45
2023-03-14T22:00:37.156Z,6.93
2023-03-14T22:03:38.889Z,4.70
2023-03-14T22:06:40.499Z,6.72
2023-03-14T22:09:43.821Z,10.68
2023-03-14T22:12:45.428Z,10.05
2023-03-14T22:15:48.998Z,4.82
2023-03-14T22:18:50.674Z,3.72
2023-03-14T22:21:52.518Z,3.58
2023-03-14T22:24:54.412Z,3.70
2023-03-14T22:27:56.224Z,5.10
2023-03-14T22:30:57.985Z,5.15
2023-03-14T22:33:59.981Z,6.10
2023-03-14T22:37:03.429Z,4.93
2023-03-14T22:40:05.670Z,5.87
2023-03-14T22:43:07.265Z,3.42
2023-03-14T22:46:10.653Z,5.00
2023-03-14T22:49:12.784Z,5.12
2023-03-14T22:52:14.987Z,3.95
2023-03-14T22:55:16.650Z,3.65
2023-03-14T22:58:18.423Z,3.45
2023-03-14T23:01:20.139Z,8.15
2023-03-14T23:04:21.811Z,4.57
2023-03-14T23:07:23.364Z,4.00
2023-03-14T23:10:25.046Z,6.12
2023-03-14T23:13:26.702Z,7.85
2023-03-14T23:16:38.187Z,3.85
2023-03-14T23:19:41.924Z,8.73
2023-03-14T23:22:43.589Z,14.95
2023-03-14T23:25:53.461Z,12.18
2023-03-14T23:28:55.486Z,8.65
2023-03-14T23:31:57.110Z,10.43
2023-03-14T23:34:58.933Z,7.28
2023-03-14T23:38:01.564Z,8.05
2023-03-14T23:41:03.264Z,7.55
2023-03-14T23:44:05.002Z,6.90
2023-03-14T23:47:07.008Z,6.10
2023-03-14T23:50:09.298Z,6.53
2023-03-14T23:53:10.870Z,6.15
2023-03-14T23:56:14.685Z,6.18
2023-03-14T23:59:16.339Z,5.35
